Terminal Aerodrome Forecast
Issued by NWS Greer, SC

Home | Current Version | Previous Version | Text Only | Print | Product List | Glossary On
Versions: 1 2 3 4 5 6 7 8 9 10 11 12 13 14 15 16
000
FTUS42 KGSP 251734
TAFAVL
TAF
KAVL 251734Z 2518/2618 20009KT P6SM BKN040
     FM260000 14006KT P6SM BKN035
     FM260400 15007KT P6SM BKN015 PROB30 2604/2606 4SM -SHRA OVC007
     FM260600 15007KT P6SM BKN008 PROB30 2606/2607 4SM -SHRA OVC003
     FM260700 15008KT P6SM -SHRA OVC008=

USA.gov is the U.S. government's official web portal to all federal, state and local government web resources and services.